Timeline UpdatesTrip UpdatesNews PostsPvt PostsTravel TipsAdmin PostsConv PostsFollowed PostsChat RequestsBlog PostsPNR Posts

Disclaimer
Search
 
 
Sun Apr 20, 2014 02:22:20 ISTHomeTrainsΣChainsAtlasPNRForumGalleryNewsFAQTripsMembersLoginFeedback
No Recent News for this Train
Other Trains in the News **new
Latest...
.
Sat Jan 25, 2014 (05:45PM)
⇐ Return Journey: Train# 12313

12314/New Delhi-Sealdah Rajdhani Express

Feb 05 2014 (11:45PM)
Change Departure Station:
Change Arrival Station:
Post a Train Travel TipPost a Train Travel Tip **new
Post a Comment/Question/Picture/VideoPost a Comment/Question/Picture/Video
Inaugural Run
Sat Jul 01, 2000
Pantry/Catering
✓ Pantry Car Avbl
✓ Catering Avbl
Evening snacks+Dinner+Bed Tea+Morning Breakfast ; (Cost included in fare)
RSA - Rake Sharing
No RSA.
Rake/Coach Composition
LOCO-EOG-H1-PC-A3-A2-A1-B12*-B11-B10-B9-B8-B7-B6-B5-B4-B3-B2-B1-BE1-PC-EOG *:B12 permanently attached from 16.08.13 onwards.
Loco
WAP-7 of Ghaziabad Shed (NR). WAP-4 is seen rarely.
News    PNR    Forum    Time-Table    Availability    Fare Chart    Map    Arr/Dep History    Trips    Gallery    ΣChains    X/O    Timeline    
Travel Time: 15h 17m    5 halts    Distance: 1293 km    Avg Speed: 84 km/hr
Type: Rajdhani
Zone: ER/Eastern
Departs @ 16:30 (Avg 3m late)
Platform# 13
SMTWTFS
New Delhi/NDLS 
Arrives @ 07:47 +1 night (Avg 19m late)
Platform# 4
SMTWTFS
Durgapur/DGR 

5 halts. 213 intermediate Stations between New Delhi and Durgapur

Hide intermediate Stations  Show Old Time-Table

#CodeStation NameX/OArrivesAvgDepartsAvgHaltPFDay#KmSpeedElevZoneAddress
1NDLS»New Delhi (16)»  -16:30+31310.088215mNRAjmeri Gate/Paharganj, Delhi NCT
1.1CSBShivaji Bridge (4)  16:31-16:31-  11.1 88213mNRConnaught Place, Delhi NCT
1.2TKJTilak Bridge (4)  16:32-16:32-  12.4 88214mNRNew Delhi, Delhi NCT
1.3MWCMandawali-Chander Vihar (2)  16:36-16:36-  18.7 88206mNRDelhi-110092, Delhi NCT
1.4ANVRAnand Vihar (2)  16:38-16:38-  112.2 88213mNRAnand Vihar, Delhi NCT
1.5ANVTDelhi Anand Vihar Terminal (3)  16:38-16:38-  112.3 88208mNRGhazipur Road, Delhi NCT
1.6CNJChander Nagar (2)O  16:40-16:40-  114.4 88206mNRSahibabad Industrial Area Site 4, Uttar Pradesh
1.7DSBPDelhi Shahdara B PanelX  16:41-16:41-  115.7 88206mNRGhaziabad, Uttar Pradesh
1.8SBBSahibabad Junction (5)X  16:42-16:42-  118.0 88209mNRGhaziabad, Uttar Pradesh
1.9GZBGhaziabad Junction (6)  16:47-16:47-  125.3 88217mNRGhaziabad, Uttar Pradesh
1.10CYZChipyana Buzurg (1)  16:50-16:50-  128.8 88209mNRGhaziabad, Uttar Pradesh
1.11MIUMaripat (2)X  16:54-16:54-  135.3 88213mNCRNational Highway 91, Uttar Pradesh
1.12DERDadri (3)  16:59-16:59-  142.0 88210mNCR203207, Uttar Pradesh
1.13BRKYBoraki (2)  17:01-17:01-  146.3 88208mNCRNational Highway 91, Uttar Pradesh
1.14AJRAjaibpur (2)  17:05-17:05-  151.2 88207mNCRGreater Noida, Uttar Pradesh
1.15DKDEDankaur (3)  17:10-17:10-  159.5 88209mNCRShyam Nagar Mandi, Uttar Pradesh
1.16WAIRWair (2)  17:17-17:17-  168.5 88203mNCRBulandshahr District, Uttar Pradesh
1.17WIRWairX  17:17-17:17-  168.5 88203mNCRBhati Harish Singh, Uttar Pradesh
1.18CHLChola (3)  17:20-17:20-  173.4 88204mNCRTahsil Bulandshahar, Uttar Pradesh
1.19GNRLGangraul (3)  17:23-17:23-  177.5 88200mNCRMDR 70W, Uttar Pradesh
1.20SKQSikandarpur (2)O  17:26-17:26-  182.3 88199mNCRMDR 70W, Uttar Pradesh
1.21KRJKhurja Junction (4)X  17:30-17:30-  187.9 88199mNCRBulandshahr, Uttar Pradesh
1.22KAMPKamalpur (2)  17:33-17:33-  193.5 88195mNCRKamalpur, Uttar Pradesh
1.23DARDanwar (2)X  17:37-17:37-  199.1 88198mNCRDanwar, Uttar Pradesh
1.24SOMSomna (2)O  17:44-17:44-  1109.3 88195mNCRNational Highway 91, Uttar Pradesh
1.25KLAKulwa (2)  17:51-17:51-  1119.5 88190mNCRAligarh, Uttar Pradesh
1.26MWUEMahrawal (2)X  17:55-17:55-  1125.1 88189mNCRNational Highway 91, Uttar Pradesh
1.27ALJNAligarh Junction (4)  17:59-17:59-  1131.4 88192mNCRAligarh, Uttar Pradesh
1.28DAQDaud Khan (3)  18:04-18:04-  1138.5 88189mNCRNational Highway 91, Uttar Pradesh
1.29MXKMandrak (2)X  18:09-18:09-  1145.3 88190mNCRNational Highway 93, Uttar Pradesh
1.30SNSSasni (3)X  18:14-18:14-  1152.6 88185mNCRSasni, Uttar Pradesh
1.31HRSHathras Junction (3)  18:20-18:20-  1161.6 88183mNCRMahamaya Nagar(05722-242803), Uttar Pradesh
1.32PORAPora (2)X  18:27-18:27-  1172.0 88179mNCRHathras, Uttar Pradesh
1.33JLSJalesar Road (1)  18:33-18:33-  1181.7 88172mNCRMDR 106W, Uttar Pradesh
1.34CMRChamrola (1)  18:38-18:38-  1188.1 88174mNCRMDR 106W, Uttar Pradesh
1.35BRNBarhan Junction  18:42-18:42-  1194.9 88173mNCRJN Point-Tundle/Aligarh/Etah, Uttar Pradesh
1.36MTIMitawali (1)  18:48-18:48-  1202.7 88169mNCRMitawali, Uttar Pradesh
1.37WSCShivarampur  18:50-18:50-  1206.1 88168mNCRShivarampur, Uttar Pradesh
1.38TDLTundla Junction (4)XO  18:52-18:52-  1209.6 88167mNCRDistt.Firozabad, Uttar Pradesh
1.39HNGHirangaon (2)X  18:58-18:58-  1218.3 88166mNCRNational Highway 2, Uttar Pradesh
1.40FZDFirozabad (4)  19:04-19:04-  1226.1 88164mNCRFirozabad, Uttar Pradesh
1.41MNRMakkhanpur (2)X  19:10-19:10-  1236.1 88166mNCRNational Highway 2, Uttar Pradesh
1.42SKBShikohabad Junction (4)Xp19:17-19:17-  1246.0 87166mNCRDistrict Firozabad, Uttar Pradesh
1.43KAAKaurara (3)  19:24-19:24-  1256.9 87160mNCRFirozabad Distt, Uttar Pradesh
1.44BDNBhadan (2)X  19:31-19:31-  1266.0 87160mNCRFirozabad, Uttar Pradesh
1.45BBLBalrai (3)  19:38-19:38-  1276.7 87157mNCRBalrai, Uttar Pradesh
1.46JGRJaswantnagar (2)  19:44-19:44-  1285.4 87154mNCRJaswantnagar, Uttar Pradesh
1.47SBSarai Bhopat (2)  19:49-19:49-  1293.1 87151mNCREtawah(05688-1072), Uttar Pradesh
1.48ETWEtawah (5)p19:55-19:55-  1301.4 111154mNCRDistt. Etawah, Uttar Pradesh
1.49EKLEkdil (2)O  20:00-20:00-  1311.1 111150mNCRSarai Ikdil, Uttar Pradesh
1.50BNTBharthana (3)  20:06-20:06-  1321.3 111147mNCRBharthana, Uttar Pradesh
1.51SHWSamhon (2)  20:11-20:11-  1331.7 111144mNCRSamahon, Uttar Pradesh
1.52GHSRGhasara Halt (1)  20:13-20:13-  1335.3 111146mNCRPhaphund, Uttar Pradesh
1.53ULDAchalda (3)  20:16-20:16-  1340.8 111147mNCRDist. Auraiya(05688-1072), Uttar Pradesh
1.54PATAPata (3)  20:21-20:21-  1349.1 111143mNCRPhaphund, Uttar Pradesh
1.55PHDPhaphund (4)X  20:25-20:25-  1357.6 111146mNCRdist. Auraiya, Uttar Pradesh
1.56KNSKanchausi  20:30-20:30-  1366.5 111143mNCRState Highway 21, Uttar Pradesh
1.57PJYPara Jani Halt  20:33-20:33-  1371.6 111139mNCRPara Jani, Uttar Pradesh
1.58JJKJhinjhak (3)X  20:36-20:36-  1377.4 111140mNCRAuraiya, Uttar Pradesh
1.59AAPAmbiapurX  20:41-20:41-  1387.6 111140mNCRJhinjhak, Uttar Pradesh
1.60RURARura (4)X  20:46-20:46-  1396.4 111137mNCRJhinjhak, Uttar Pradesh
1.61RMWRoshan Mau  20:50-20:50-  1404.1 111135mNCRRoshan Mau, Uttar Pradesh
1.62MTOMaithaX  20:52-20:52-  1408.1 111235mNCRMDR 78C, Uttar Pradesh
1.63BPUBhaupur  20:58-20:58-  1418.0 111133mNCRKANPUR Dehat-209 307, Uttar Pradesh
1.64PNKPanki (3)  21:04-21:04-  1429.2 111129mNCRKANPUR-208 020, Uttar Pradesh
1.65GOYGovindpuri Junction (2)  21:08-21:08-  1436.9 111129mNCRKANPUR-208 006, Uttar Pradesh
1.66CPNLKanpur C Panel  21:08-21:08-  1437.4 111127mNCRKanpur, Uttar Pradesh
1.67CNJOJuhi Outer Cabin  21:08-21:08-  1437.9 111131mNCRKanpur, Uttar Pradesh
1.68GMCKanpur Goods Marshalling Yard  21:09-21:09-  1439.5 111128mNCRKanpur-208 014, Uttar Pradesh
2CNBKanpur Central (10)X  21:10+2821:15+295m51440.890128mNCRKanpur, Uttar Pradesh
2.1CNBIChandari (2)  21:18-21:18-  1445.3 90125mNCRKanpur Cantt, Uttar Pradesh
2.2CHKChakeri (2)X  21:23-21:23-  1452.2 90126mNCRKANPUR-208 008, Uttar Pradesh
2.3RXMRooma (2)  21:26-21:26-  1456.7 90125mNCRKANPUR-208 008, Uttar Pradesh
2.4SSLSirsaul (1)X  21:30-21:30-  1463.3 90125mNCRKANPUR-209 402, Uttar Pradesh
2.5PMPRPrempurX  21:34-21:34-  1469.5 90125mNCRNational Highway 2, Uttar Pradesh
2.6KBNKarbigwanX  21:38-21:38-  1474.8 90121mNCRFatehpur, Uttar Pradesh
2.7AUNGAung  21:42-21:42-  1481.2 90123mNCRNational Highway 2, Uttar Pradesh
2.8BKOBindki Road  21:46-21:46-  1487.1 90124mNCRFatehpur, Uttar Pradesh
2.9KSQKanspur GugauliX  21:51-21:51-  1495.0 90124mNCRNational Highway 2, Uttar Pradesh
2.10MWHMalwan (2)O  21:56-21:56-  1502.2 90122mNCRFatehpur, Uttar Pradesh
2.11KKSKurasti KalanO  22:02-22:02-  1511.3 90119mNCRJoniha Rd, Uttar Pradesh
2.12FTPFatehpur (3)X  22:07-22:07-  1518.4 90120mNCRFatehpur, Uttar Pradesh
2.13RAMARamva  22:11-22:11-  1524.3 90116mNCRforcing detours between Kanpur and Varanasi, Uttar Pradesh
2.14FYZFaizullapur  22:14-22:14-  1529.4 90115mNCRFaizullapur, Uttar Pradesh
2.15RUBRasulabad  22:20-22:20-  1538.5 90118mNCRRasulabad, Uttar Pradesh
2.16SNIESath NarainiX  22:25-22:25-  1545.6 90114mNCRNational Highway 2, Uttar Pradesh
2.17KGAKhaga (3)  22:30-22:30-  1553.1 90114mNCRFatehpur, Uttar Pradesh
2.18KTCEKatoghan  22:35-22:35-  1560.0 90109mNCRNational Highway 2, Uttar Pradesh
2.19KUWKanwar  22:39-22:39-  1566.0 90110mNCRNational Highway 2, Uttar Pradesh
2.20ASCEAthsaraiX  22:42-22:42-  1571.5 90107mNCRAthsarai, Uttar Pradesh
2.21SROSirathu (2)X  22:47-22:47-  1577.9 90109mNCRSirathu, Uttar Pradesh
2.22SJTShujaatpur  22:53-22:53-  1587.7 90107mNCRNational Highway 2, Uttar Pradesh
2.23BDNPBidanpurX  22:57-22:57-  1594.0 90106mNCRBidanpur, Uttar Pradesh
2.24BREBharwariX  23:00-23:00-  1598.0 90108mNCRBharwari, Uttar Pradesh
2.25MNJManoharGanj  23:05-23:05-  1605.9 90104mNCRNational Highway 2, Uttar Pradesh
2.26SYWNSaiyid Sarawan  23:10-23:10-  1613.3 90106mNCR212203 ?, Uttar Pradesh
2.27MREManauriX  23:13-23:13-  1617.9 90105mNCRSabderganj-Fatehpur Rd, Uttar Pradesh
2.28BMUBamhrauliX  23:19-23:19-  1626.3 90102mNCRAllahabad, Uttar Pradesh
2.29SFGSubedarGanj (3)  23:22-23:22-  1631.3 90100mNCRAllahabad, Uttar Pradesh
2.30ALDAllahabad Junction (10)Op23:25-23:25-  1635.1 74100mNCRAllahabad 211003, Uttar Pradesh
2.31NYNNaini Junction (4)  23:31-23:31-  1642.5 7498mNCRAllahabad, Uttar Pradesh
2.32COIChheoki Junction (3)O  23:32-23:32-  1644.2 7496mNCRDist.-Allahabad, Uttar Pradesh
2.33KCNKarchana  23:40-23:40-  1653.2 7494mNCRKarchana, Uttar Pradesh
2.34BEPBheerpur  23:47-23:47-  1662.3 7494mNCRNH 76, Uttar Pradesh
2.35MJAMeja Road (4)  23:56-23:56-  1673.6 7494mNCRDistrict Allahabad, Uttar Pradesh
2.36UNDUnchdihX  00:03-00:03-  2681.7 7494mNCRUnchdih, Uttar Pradesh
2.37MNFManda RoadXO  00:09-00:09-  2689.8 7493mNCRNH 76, Uttar Pradesh
2.38JIAJigna (1)X  00:16-00:16-  2698.1 7494mNCRNational Highway 76, Uttar Pradesh
2.39GAEGaipura (4)XO  00:21-00:21-  2705.0 7486mNCRGaipura, Uttar Pradesh
2.40BEOBirohe  00:27-00:27-  2712.6 7483mNCRNational Highway 76, Uttar Pradesh
2.41BDLVindhyachal (3)X  00:31-00:31-  2717.3 7488mNCRMirzapur, Uttar Pradesh
2.42MZPMirzapur (3)X  00:37-00:37-  2724.6 7488mNCRMirzapur, Uttar Pradesh
2.43JHGJhinguraX  00:44-00:44-  2732.9 7485mNCRNational Highway 7, Uttar Pradesh
2.44PREPaharaO  00:50-00:50-  2740.4 7487mNCRNational Highway 7, Uttar Pradesh
2.45DAPDagmagpur  00:56-00:56-  2748.5 7488mNCRDagmagpur, Uttar Pradesh
2.46CARChunar Junction (5)  01:02-01:02-  2755.9 7485mNCRChunar Junction, Uttar Pradesh
2.47KYTKailahatX  01:10-01:10-  2765.5 7484mNCRKailahat, Uttar Pradesh
2.48ARWAhraura RoadX  01:17-01:17-  2774.0 7485mNCRDist. Mirzapur, Uttar Pradesh
2.49JEPJeonathpurX  01:22-01:22-  2780.0 7483mNCRNational Highway 7, Uttar Pradesh
2.50NEWCNew West CabinX  01:27-01:27-  2786.5 7480mECRMughal Sarai, Uttar Pradesh
3MGSMughal Sarai Junction (8)X  01:28+2101:38+2210m32787.89383mECRMughalsarai 232101, Uttar Pradesh
3.1FOCMFlyover Cabin Mughal SaraiX  01:42-01:42-  2794.2 9380mECRChandauli Mjhwr, Uttar Pradesh
3.2GAQGanj Khawaja  01:44-01:44-  2796.7 9379mECRChandauli Mjhwr, Uttar Pradesh
3.3CDMRChandauli Majhwar  01:49-01:49-  2805.2 9380mECRNational Highway 2, Uttar Pradesh
3.4SYJSaidraja  01:55-01:55-  2813.6 9380mECRSaiyedraja, Uttar Pradesh
3.5KMSKaramnasaX  02:00-02:00-  2821.8 9378mECRNational Highway 2, Uttar Pradesh
3.6DCXDhanaichhaX  02:04-02:04-  2828.0 9375mECRNational Highway 2, Bihar
3.7DGODurgauti  02:07-02:07-  2833.4 9376mECRDistt Kaimur, Bihar
3.8BBUBhabua Road (4)  02:13-02:13-  2842.4 9380mECR06187-222222, Bihar
3.9MTGEMuthani  02:17-02:17-  2847.8 9383mECRNational Highway 2, Bihar
3.10PSEPusauli  02:22-02:22-  2855.7 9386mECRDistt: Rohtas, Bihar
3.11KTQKudra (2)  02:28-02:28-  2864.7 9392mECRKudra, Bihar
3.12KVDKhurmabad RoadX  02:32-02:32-  2871.6 9393mECRKhurmabad, Bihar
3.13SSGShiu Sagar Road  02:35-02:35-  2876.4 9399mECRShiu Sagar Rd, Bihar
3.14KMGEKumahu  02:39-02:39-  2882.0 93101mECRKamahu, Bihar
3.15SSMSasaram Junction (4)O  02:44-02:44-  2889.9 93111mECR06184-222051, Bihar
3.16KWDKarwandia  02:48-02:48-  2896.5 93113mECRKarwandiya, Bihar
3.17PHEPahaleja Halt  02:52-02:52-  2903.1 93112mECRPahaleja, Bihar
3.18DOSDehri On Sone (6)X  02:55-02:55-  2907.6 93114mECRRohtas(06184-253154), Bihar
3.19ADSRADSR  02:56-02:56-  2908.5 93113mECRDehri, Bihar
3.20SEBSon Nagar Junction (4)  02:59-02:59-  2913.3 93110mECRBarun, Bihar
3.21CPBHChirailaX  03:03-03:03-  2919.1 93104mECRBarun, Bihar
3.22AUBRAnugraha Narayan Road (4)X  03:06-03:06-  2924.2 93104mECR06186-285271, Bihar
3.23PESPhesar  03:12-03:12-  2933.1 93104mECRpheshar, Bihar
3.24BHKHBaghoi Kusa  03:15-03:15-  2937.7 9398mECRbel Rd, Bihar
3.25JHNJakhim  03:19-03:19-  2944.2 9393mECRbel Rd, Bihar
3.26DORDDeo Road  03:21-03:21-  2948.0 93102mECRMaluk Bigha, Bihar
3.27RFJRafiGanj (4)X  03:26-03:26-  2955.0 93102mECRRafiganj, Bihar
3.28IMGEIsmailpurX  03:32-03:32-  2964.3 93114mECRState Highway 69, Bihar
3.29GRRUGuraru  03:36-03:36-  2971.2 93114mECRGuraru, Bihar
3.30PRYParaiyaXO  03:40-03:40-  2977.1 93111mECRparaiya station Rd, Bihar
3.31KSTAKastha  03:45-03:45-  2984.2 93113mECRGaya, Bihar
3.32WCBGaya West Cabin  03:48-03:48-  2989.4 93111mECRGaya, Bihar
4GAYAGaya Junction (9)X  03:50+2003:53+213m32992.680117mECR0631-2220283, Bihar
4.1SICYShaheed Ishwar Chowdhary Halt  03:56-03:56-  2996.3 80112mECRManpur, Bihar
4.2MPOManpur JunctionX  03:57-03:57-  2997.9 80113mECRGaya, Bihar
4.3BNFBandhua  04:02-04:02-  21005.1 80124mECRState Highway 70, Bihar
4.4TKNTankuppa  04:08-04:08-  21012.7 80127mECRState Highway 70, Bihar
4.5BNSLBansinala HaltX  04:13-04:13-  21018.8 80135mECRBansinala, Bihar
4.6PRPPaharpur  04:17-04:17-  21025.0 80150mECRGaya, Bihar
4.7GAPGurpa  04:26-04:26-  21036.7 80192mECRLodhwe, Bihar
4.8YGMYadugram Block HutX  04:29-04:29-  21040.0 80210mECRYadugram Block Hut, Jharkhand
4.9BSCPBaskatwa B. H.  04:32-04:32-  21044.8 80273mECRMurli, Bihar
4.10NGYNath Ganj  04:33-04:33-  21046.2 80284mECRMurli, Bihar
4.11DLWDilwaX  04:38-04:38-  21052.4 80346mECRNational Highway 31, Bihar
4.12LBZLalbag Block HutX  04:41-04:41-  21056.9 80389mECRState Highway 70, Bihar
4.13GJDGujhandi  04:43-04:43-  21059.1 80386mECRNational Highway 31, Jharkhand
4.14KQRKoderma Junction (7)X  04:50-04:50-  21069.0 80399mECR06534-222410 Koderma, Jharkhand
4.15LRBLarabadX  04:54-04:54-  21073.6 80393mECRJhumri Telaiya, Jharkhand
4.16HREHirodih  04:57-04:57-  21078.2 80371mECRJhumri Telaiya, Jharkhand
4.17SMNDSarmatanr  05:03-05:03-  21085.9 80351mECRKoderma, Jharkhand
4.18YDDYadudih  05:06-05:06-  21089.9 80352mECRNational Highway 2, Jharkhand
4.19PSBParsabad (3)X  05:10-05:10-  21095.4 80346mECRNational Highway 2, Jharkhand
4.20DSMEDasara  05:15-05:15-  21101.9 80342mECRSariya - Parsiya Road, Jharkhand
4.21CBHChaube  05:19-05:19-  21106.8 80325mECRParsabad, Jharkhand
4.22KSHRKeshwari  05:22-05:22-  21111.7 80313mECRMandramo, Jharkhand
4.23HZDHazaribagh Road (3)O  05:27-05:27-  21117.3 80330mECRHazaribagh, Jharkhand
4.24CCKChichaki  05:30-05:30-  21122.4 80308mECRNational Highway 2, Jharkhand
4.25GRBHGarea Bihar  05:32-05:32-  21124.3 80315mECRSariya - Parsiya Rd, Jharkhand
4.26UDLWAndal West CabinO  05:33-05:33-  21125.3 80323mERAndal, Jharkhand
4.27CDBChaudhribandh  05:34-05:34-  21127.1 80314mECRMaipatoli, Jharkhand
4.28CEMEChegro  05:37-05:37-  21131.4 80333mECRBeko, Jharkhand
4.29PNMEParasnath (5)  05:47-05:47-  21144.4 80282mECRGiridih 06532-233419, Jharkhand
4.30NMGNimiaghat  05:53-05:53-  21152.0 80268mECRNational Highway 2, Jharkhand
4.31BLMEBholldih  05:57-05:57-  21157.6 80241mECRGomoh, Jharkhand
4.32GMONetaji SC Bose Gomoh Junction (6)O  06:01-06:01-  21162.4 80239mECRGomoh, Jharkhand
4.33MRQMatari  06:08-06:08-  21171.9 80246mECRDhanbad, Jharkhand
4.34NPJENichitpurX  06:12-06:12-  21177.2 80224mECRKatras, Jharkhand
4.35TETTetulmari  06:16-06:16-  21183.1 80225mECRTetulmari, Jharkhand
4.36BHNBhuli  06:20-06:20-  21188.4 80230mECRKusunda, Jharkhand
5DHNDhanbad Junction (8)X  06:23+1606:28+185m121192.274235mECR2319801. Div. HQ ECR, Jharkhand
5.1DOKMDokra Halt (2)  06:32-06:32-  21197.5 74211mECRDokra, Jharkhand
5.2PKAPradhankhunta Junction (3)  06:35-06:35-  21201.3 74202mECRDhanbad, Jharkhand
5.3CAMChhota Ambana (3)  06:40-06:40-  21207.5 74200mERDhanbad, Jharkhand
5.4KAOKalubathan (2)  06:48-06:48-  21216.5 74195mERDhanbad, Jharkhand
5.5TNWThapar Nagar (2)  06:51-06:51-  21220.8 74144mERDhanbad, Jharkhand
5.6MMUMugma (3)  06:55-06:55-  21226.1 74135mERNational Highway 2, Jharkhand
5.7KMMEKumardubi (2)X  06:59-06:59-  21230.7 74135mERDhanbad - 828203(06540-222077), Jharkhand
5.8BRRBarakar (2)  07:01-07:01-  21233.2 74129mERDist. Bardhaman, West Bengal
5.9ULTKulti (3)  07:04-07:04-  21236.5 74148mERdist - bardhaman, West Bengal
5.10STNSitarampur Junction (5)  07:08-07:08-  21241.7 74139mERG T Rd Before Asansol, West Bengal
5.11BCQBarachak Junction (4)  07:11-07:11-  21245.4 74127mERdist - bardhaman, West Bengal
6ASNAsansol Junction (7)  07:15+2207:19+224m521250.491113mERDist - bardhaman, West Bengal
6.1ASNEAsansol East  07:20-07:20-  21252.1 91110mERAsansol, West Bengal
6.2KPKKalipahari (4)  07:23-07:23-  21255.7 91106mERBardhaman distt, West Bengal
6.3NMCNimcha  07:28-07:28-  21264.7 91106mERRaniganj, West Bengal
6.4RNGRaniGanj (4)  07:31-07:31-  21268.6 9192mERRaniganj, West Bengal
6.5BQTBakhtarnagar  07:34-07:34-  21273.1 9187mERKajora, West Bengal
6.6UDLAndal Junction (6)  07:36-07:36-  21275.8 9186mERAndal, West Bengal
6.7UDLEAndal East Cabin  07:37-07:37-  21277.9 9180mERAndal, West Bengal
6.8EOCAndal East Outer CabinX  07:37-07:37-  21278.3 9180mERAndal, West Bengal
6.9POLPinjrapol  07:40-07:40-  21282.1 9180mERDurgapur, West Bengal
6.10OYRWaria (4)O  07:41-07:41-  21284.0 9172mERDurgapur, West Bengal
6.11DCOPDurgapur Coke Oven Plant  07:45-07:45-  21290.4 9178mERDurgapur, West Bengal
7DGR•Durgapur (5)•X  07:47+1907:49+182m421292.97171mERDurgapur, West Bengal
7.1RBHRajbandh  07:56-07:56-  21300.7 7172mERRajbandh Rail Station Rd, West Bengal
7.2PANPanagarh (4)X  08:02-08:02-  21308.5 7170mERKaksa, West Bengal
7.3MNAEMankar (4)  08:11-08:11-  21318.7 7165mERMankur, West Bengal
7.4PAJParajX  08:18-08:18-  21327.0 7152mERNational Highway 2, West Bengal
7.5GLIGalsi (4)  08:23-08:23-  21333.4 7147mERBardhaman, West Bengal
7.6INCIIshan Chandi Halt  08:29-08:29-  21340.0 7143mERDist - Bardhaman, West Bengal
7.7KANKhana Junction (5)X  08:32-08:32-  21343.3 7142mERDist - Bardhaman, West Bengal
7.8TITTalit (4)  08:37-08:37-  21348.8 7137mERDist - Bardhaman, West Bengal
7.9BWNBarddhaman Junction (8)XOp08:43-08:43-  21356.4 8034mERDist - Barddhaman, West Bengal
7.10GRPGangpur (4)X  08:48-08:48-  21363.4 8029mERGangpur, West Bengal
7.11SKGSaktigarh (7)X  08:52-08:52-  21368.5 8028mERSaktigarh, West Bengal
7.12PRAEPalla Road (4)X  08:56-08:56-  21373.3 8030mERDuragapur Expressway (NH 2), West Bengal
7.13CHCChanchai (3)  08:58-08:58-  21376.2 8025mERChanchai, West Bengal
7.14MSAEMasagram Junction (6)  09:00-09:00-  21379.3 8025mERDist - bardhaman, West Bengal
7.15NBAENabagram (3)X  09:02-09:02-  21382.3 8022mERDattapur, West Bengal
7.16JRAEJaugram (3)  09:06-09:06-  21386.6 8023mERAstai, West Bengal
7.17JPQJhapandanga (3)  09:07-09:07-  21388.6 8021mERBurdwan., West Bengal
7.18GRAEGurap (4)  09:11-09:11-  21393.5 8020mERMagra-Gurup Road, West Bengal
7.19HIHHajigarh (3)  09:12-09:12-  21395.7 8020mERDurgapur Expressway, West Bengal
7.20CRAECheragram Block Hut  09:14-09:14-  21397.2 8016mERDurgapur Expy, West Bengal
7.21SHBCSibaichandi (3)X  09:15-09:15-  21399.5 8016mERBainchi-Dhaniakali Road, West Bengal
7.22DNHLDhaniakhali Halt (3)  09:18-09:18-  21402.4 8014mERChunchura-Dhaniakali Rd, West Bengal
7.23BMAEBelmuri (3)  09:19-09:19-  21404.5 8015mERBelmuri Dhaniakhali Rd, West Bengal
7.24PBZPorabazar (3)  09:21-09:21-  21406.5 8014mERPorabazar Makalpur Rd, West Bengal
7.25CDAEChandanpur (4)  09:24-09:24-  21410.8 8015mERDist - hooghly, West Bengal
7.26MDSEMadhu Sudanpur (3)  09:27-09:27-  21415.2 8011mERState Highway 2, West Bengal
7.27KQLSKamarkundu (lower) (3)  09:29-09:29-  21418.0 8012mERKamarkundu, West Bengal
7.28KQUKamarkundu (5)  09:29-09:29-  21418.1 8013mERDist - Hooghly, West Bengal
7.29BLAEBalarambati (3)  09:31-09:31-  21419.8 8016mERState Highway 2, West Bengal
7.30MBEMirzapur Bankipur (3)X  09:32-09:32-  21421.8 8016mERSingpara Rd, West Bengal
7.31BRPABarui Para (4)  09:35-09:35-  21425.0 8012mER31 no Rd, West Bengal
7.32BPAEBegumpur (3)  09:37-09:37-  21428.7 8011mERChanditala-Sreerampore Rd, West Bengal
7.33JOXJanai Road (4)  09:39-09:39-  21430.7 808mERJanai Rd Railway Station, West Bengal
7.34GBRAGobra (3)  09:41-09:41-  21434.0 806mERStation Pally, West Bengal
7.35DKAEDankuni Junction (5)p09:43-09:43-  21436.3 407mERDist - Hooghly, West Bengal
7.36CCRLCalcutta Chord Link Cabin  09:49-09:49-  21440.3 408mERdist - howrah, West Bengal
7.37RCDRajchandrapur (2)  09:50-09:50-  21440.6 4010mERHowrah, West Bengal
7.38BLYHBaly Halt (2)  09:52-09:52-  21442.4 4012mERDist - Howrah, West Bengal
7.39BLYGBally Ghat (2)  09:54-09:54-  21443.4 4013mERHowrah, West Bengal
7.40DAKEDakhineswar (2)  09:56-09:56-  21445.1 4010mERDist - 24 paraganas ( North ), West Bengal
7.41BARNBaranagar Road (2)  09:58-09:58-  21446.6 4010mERDist - North 24 Paraganas, West Bengal
7.42DDJDum Dum Junction (5)  10:05-10:05-  21451.2 4010mERKolkata - 700028, West Bengal
7.43BNXRBidhan Nagar Road (4)  10:10-10:10-  21454.4 408mERKolkata, West Bengal
7.44KGKKankurgachhi Road Cabin  10:12-10:12-  21455.8 408mERKolkata, West Bengal
8SDAHKolkata Sealdah (20)10:15+13-921457.8-8mERPh : 033-23503535 (For North: APC Roy Road) Kolkata 700014, West Bengal
Scroll to Top
Scroll to Bottom